Time;durP1;ratioP1;P1;durP2;ratioP2;P2;SDS_P1;SDS_P2;PMS_P1;PMS_P2;Temp;Humidity;BMP_temperature;BMP_pressure;BME280_temperature;BME280_humidity;BME280_pressure;Samples;Min_cycle;Max_cycle;Signal;HPM_P1;HPM_P2
2022/12/10 00:01:49;;;;;;;40.95;21.02;;;;;;;-1.26;100.00;100285.22;7396716;19;20018;-68
2022/12/10 00:04:19;;;;;;;44.08;21.95;;;;;;;-1.26;100.00;100281.75;7394956;19;20040;-68
2022/12/10 00:06:50;;;;;;;42.40;22.00;;;;;;;-1.26;100.00;100285.22;7394338;19;20042;-68
2022/12/10 00:09:20;;;;;;;42.13;21.00;;;;;;;-1.25;100.00;100274.09;7395702;19;20032;-68
2022/12/10 00:11:48;;;;;;;36.63;19.63;;;;;;;-1.24;100.00;100282.66;7396052;19;20410;-69
2022/12/10 00:14:17;;;;;;;40.65;22.05;;;;;;;-1.28;100.00;100274.00;7395894;19;20022;-68
2022/12/10 00:16:46;;;;;;;37.45;20.25;;;;;;;-1.24;100.00;100269.78;7394059;19;20023;-68
2022/12/10 00:19:14;;;;;;;38.35;21.15;;;;;;;-1.26;100.00;100284.31;7394035;19;20031;-68
2022/12/10 00:21:43;;;;;;;38.65;20.50;;;;;;;-1.28;100.00;100284.31;7395618;19;20421;-69
2022/12/10 00:24:14;;;;;;;37.05;19.35;;;;;;;-1.29;99.85;100284.28;7395807;19;20091;-68
2022/12/10 00:26:45;;;;;;;36.08;19.90;;;;;;;-1.29;100.00;100284.28;7393887;19;20089;-68
2022/12/10 00:29:14;;;;;;;34.90;19.83;;;;;;;-1.32;100.00;100280.78;7394979;19;20010;-69
2022/12/10 00:31:44;;;;;;;38.30;20.70;;;;;;;-1.33;100.00;100283.34;7394811;19;20484;-69
2022/12/10 00:34:14;;;;;;;38.15;20.65;;;;;;;-1.31;100.00;100297.13;7395226;19;20015;-68
2022/12/10 00:36:45;;;;;;;38.00;20.58;;;;;;;-1.32;99.71;100290.22;7394063;19;20018;-69
2022/12/10 00:39:19;;;;;;;34.95;19.02;;;;;;;-1.35;100.00;100291.03;7395206;19;20021;-69
2022/12/10 00:41:48;;;;;;;39.55;21.95;;;;;;;-1.36;100.00;100285.88;7395381;19;20015;-69
2022/12/10 00:44:29;;;;;;;37.85;20.02;;;;;;;-1.40;99.72;100282.38;7390772;19;20011;-68
2022/12/10 00:46:58;;;;;;;38.03;20.80;;;;;;;-1.43;99.54;100278.88;7392396;19;20014;-69
2022/12/10 00:49:26;;;;;;;37.20;19.35;;;;;;;-1.45;99.22;100291.72;7394653;19;20026;-69
2022/12/10 00:51:55;;;;;;;36.88;20.92;;;;;;;-1.48;100.00;100297.66;7394191;19;20453;-69
2022/12/10 00:54:26;;;;;;;36.38;20.92;;;;;;;-1.49;100.00;100313.94;7394340;19;20022;-68
2022/12/10 00:56:54;;;;;;;35.25;19.50;;;;;;;-1.48;100.00;100310.53;7393450;19;20035;-68
2022/12/10 00:59:23;;;;;;;39.83;21.45;;;;;;;-1.46;100.00;100317.41;7394225;19;20390;-69
2022/12/10 01:01:51;;;;;;;40.15;21.65;;;;;;;-1.45;100.00;100325.16;7392904;19;20022;-69
2022/12/10 01:04:20;;;;;;;38.80;21.13;;;;;;;-1.44;100.00;100323.44;7394487;19;20015;-69
2022/12/10 01:06:50;;;;;;;39.92;21.58;;;;;;;-1.43;100.00;100317.47;7392695;19;20082;-69
2022/12/10 01:09:21;;;;;;;40.67;20.75;;;;;;;-1.41;100.00;100320.94;7394352;19;20388;-69
2022/12/10 01:11:53;;;;;;;39.92;19.92;;;;;;;-1.42;100.00;100325.22;7394845;19;20018;-69
2022/12/10 01:14:24;;;;;;;39.00;20.05;;;;;;;-1.42;100.00;100322.63;7394952;19;20023;-69
2022/12/10 01:16:55;;;;;;;35.25;20.27;;;;;;;-1.40;100.00;100323.53;7398926;19;20032;-69
2022/12/10 01:19:24;;;;;;;30.70;19.25;;;;;;;-1.40;100.00;100326.13;7402369;19;20018;-69
2022/12/10 01:21:53;;;;;;;37.28;20.38;;;;;;;-1.39;100.00;100327.84;7398656;19;20015;-69
2022/12/10 01:24:22;;;;;;;39.33;21.67;;;;;;;-1.42;100.00;100317.50;7402165;19;20014;-69
2022/12/10 01:26:54;;;;;;;34.28;19.02;;;;;;;-1.40;100.00;100320.97;7399245;19;20477;-69
2022/12/10 01:29:23;;;;;;;36.50;20.25;;;;;;;-1.40;100.00;100326.13;7399149;19;20044;-69
2022/12/10 01:31:54;;;;;;;36.95;20.25;;;;;;;-1.39;100.00;100316.69;7401672;19;20431;-69
2022/12/10 01:34:23;;;;;;;36.85;19.60;;;;;;;-1.38;100.00;100319.31;7398599;19;20492;-69
2022/12/10 01:36:54;;;;;;;36.28;19.33;;;;;;;-1.36;100.00;100321.91;7399788;19;20039;-68
2022/12/10 01:39:24;;;;;;;38.13;19.60;;;;;;;-1.36;100.00;100324.47;7401348;19;20023;-68
2022/12/10 01:41:57;;;;;;;36.47;19.73;;;;;;;-1.35;100.00;100321.94;7401937;19;20037;-70
2022/12/10 01:44:55;;;;;;;35.83;19.33;;;;;;;-1.34;100.00;100322.78;7401821;19;20019;-68
2022/12/10 01:47:24;;;;;;;37.10;21.27;;;;;;;-1.36;100.00;100325.34;7397990;19;20384;-68
2022/12/10 01:49:53;;;;;;;38.97;20.05;;;;;;;-1.36;100.00;100324.47;7401203;19;20028;-68
2022/12/10 01:52:22;;;;;;;41.25;21.10;;;;;;;-1.35;100.00;100331.38;7401184;19;20022;-69
2022/12/10 01:54:50;;;;;;;40.53;21.52;;;;;;;-1.35;100.00;100323.66;7397987;19;20022;-69
2022/12/10 01:57:25;;;;;;;38.00;20.92;;;;;;;-1.34;100.00;100323.66;7398713;19;20022;-69
2022/12/10 01:59:56;;;;;;;36.85;20.27;;;;;;;-1.35;100.00;100326.22;7401269;19;20035;-68
2022/12/10 02:02:33;;;;;;;40.65;22.38;;;;;;;-1.35;100.00;100331.38;7400373;19;20011;-68
2022/12/10 02:05:11;;;;;;;39.25;20.13;;;;;;;-1.36;100.00;100325.34;7398621;19;20018;-68
2022/12/10 02:07:50;;;;;;;37.72;20.70;;;;;;;-1.34;100.00;100328.81;7401103;19;20082;-68
2022/12/10 02:10:31;;;;;;;37.70;20.60;;;;;;;-1.32;100.00;100323.69;7400239;19;20010;-68
2022/12/10 02:13:10;;;;;;;37.35;21.33;;;;;;;-1.33;100.00;100322.84;7400801;19;20031;-68
2022/12/10 02:15:43;;;;;;;39.40;21.30;;;;;;;-1.32;100.00;100331.41;7398072;19;20039;-68
2022/12/10 02:18:16;;;;;;;37.72;20.30;;;;;;;-1.31;100.00;100328.88;7400774;19;20022;-68
2022/12/10 02:20:49;;;;;;;36.63;19.95;;;;;;;-1.29;100.00;100321.16;7399926;19;20031;-68
2022/12/10 02:23:24;;;;;;;39.40;20.45;;;;;;;-1.30;100.00;100319.47;7400527;19;20039;-68
2022/12/10 02:26:00;;;;;;;36.78;20.83;;;;;;;-1.28;100.00;100322.06;7398110;19;20040;-68
2022/12/10 02:28:39;;;;;;;39.00;21.50;;;;;;;-1.28;100.00;100315.19;7400437;19;20023;-68
2022/12/10 02:31:13;;;;;;;40.05;21.08;;;;;;;-1.27;100.00;100321.22;7399970;19;20023;-68
2022/12/10 02:33:48;;;;;;;40.28;21.77;;;;;;;-1.28;100.00;100317.75;7399571;19;20028;-68
2022/12/10 02:36:17;;;;;;;39.22;21.13;;;;;;;-1.27;100.00;100316.06;7397537;19;20019;-68
2022/12/10 02:38:47;;;;;;;39.22;20.73;;;;;;;-1.28;100.00;100327.19;7397244;19;20039;-68
2022/12/10 02:41:20;;;;;;;36.03;20.33;;;;;;;-1.28;100.00;100328.06;7399544;19;20037;-68
2022/12/10 02:43:51;;;;;;;37.30;22.40;;;;;;;-1.28;100.00;100328.06;7399934;19;20027;-68
2022/12/10 02:46:23;;;;;;;42.45;23.15;;;;;;;-1.29;100.00;100328.88;7397504;19;20014;-68
2022/12/10 02:48:53;;;;;;;36.50;20.67;;;;;;;-1.31;100.00;100316.00;7399443;19;20035;-68
2022/12/10 02:51:22;;;;;;;34.35;19.45;;;;;;;-1.27;100.00;100318.66;7398918;19;20014;-68
2022/12/10 02:53:50;;;;;;;38.03;21.77;;;;;;;-1.28;100.00;100333.22;7398823;19;20027;-68
2022/12/10 02:56:29;;;;;;;39.55;21.42;;;;;;;-1.31;100.00;100323.72;7397592;19;20078;-68
2022/12/10 02:59:09;;;;;;;36.90;20.98;;;;;;;-1.31;100.00;100317.72;7398660;19;20031;-68
2022/12/10 03:01:53;;;;;;;36.42;21.00;;;;;;;-1.33;100.00;100315.13;7398567;19;20359;-68
2022/12/10 03:04:28;;;;;;;37.58;20.75;;;;;;;-1.33;99.30;100322.84;7399112;19;20015;-68
2022/12/10 03:07:02;;;;;;;38.08;21.52;;;;;;;-1.39;99.08;100316.69;7396705;19;20421;-68
2022/12/10 03:09:38;;;;;;;38.28;20.55;;;;;;;-1.38;99.77;100316.72;7399204;19;20010;-69
2022/12/10 03:12:15;;;;;;;40.13;20.23;;;;;;;-1.36;100.00;100324.47;7398253;19;20026;-68
2022/12/10 03:14:45;;;;;;;40.42;21.23;;;;;;;-1.36;100.00;100321.91;7396660;19;20018;-68
2022/12/10 03:17:18;;;;;;;38.17;21.50;;;;;;;-1.36;100.00;100327.91;7396317;19;20652;-68
2022/12/10 03:19:50;;;;;;;39.22;20.98;;;;;;;-1.34;100.00;100333.06;7398763;19;20026;-69
2022/12/10 03:22:22;;;;;;;38.50;20.25;;;;;;;-1.34;100.00;100321.09;7397813;19;20070;-68
2022/12/10 03:24:51;;;;;;;37.80;19.48;;;;;;;-1.33;100.00;100324.53;7397780;19;20513;-68
2022/12/10 03:27:23;;;;;;;42.20;22.02;;;;;;;-1.36;100.00;100327.91;7396236;19;20036;-68
2022/12/10 03:29:54;;;;;;;42.03;21.23;;;;;;;-1.38;99.93;100323.56;7398289;19;20461;-68
2022/12/10 03:32:28;;;;;;;44.20;21.83;;;;;;;-1.37;100.00;100330.47;7396420;19;20026;-68
2022/12/10 03:34:59;;;;;;;43.20;21.37;;;;;;;-1.37;100.00;100333.03;7397504;19;20419;-68
2022/12/10 03:37:31;;;;;;;42.13;22.05;;;;;;;-1.39;100.00;100330.44;7394961;19;20445;-68
2022/12/10 03:40:01;;;;;;;39.38;20.65;;;;;;;-1.37;100.00;100341.59;7396889;19;20028;-68
2022/12/10 03:42:30;;;;;;;39.40;20.60;;;;;;;-1.37;100.00;100335.59;7398032;19;20027;-68
2022/12/10 03:44:58;;;;;;;42.42;20.38;;;;;;;-1.37;100.00;100340.75;7397492;19;20022;-66
2022/12/10 03:47:29;;;;;;;38.92;21.02;;;;;;;-1.38;100.00;100337.31;7394542;19;20031;-68
2022/12/10 03:49:58;;;;;;;39.42;20.95;;;;;;;-1.37;100.00;100339.03;7397301;19;20414;-68
2022/12/10 03:52:26;;;;;;;41.95;22.42;;;;;;;-1.37;100.00;100338.19;7397225;19;20018;-68
2022/12/10 03:54:55;;;;;;;44.35;21.75;;;;;;;-1.39;99.91;100339.84;7397121;19;20018;-68
2022/12/10 03:57:23;;;;;;;43.65;22.83;;;;;;;-1.40;99.75;100338.09;7395418;19;20036;-68
2022/12/10 03:59:52;;;;;;;44.13;21.13;;;;;;;-1.42;99.80;100329.50;7396987;19;20022;-69
2022/12/10 04:02:20;;;;;;;41.05;22.00;;;;;;;-1.44;100.00;100336.31;7396824;19;20018;-69
2022/12/10 04:04:51;;;;;;;42.88;21.88;;;;;;;-1.45;98.53;100342.28;7396769;19;20024;-69
2022/12/10 04:07:20;;;;;;;43.63;21.70;;;;;;;-1.45;99.35;100342.28;7395151;19;20027;-68
2022/12/10 04:09:48;;;;;;;39.30;21.13;;;;;;;-1.46;99.83;100331.13;7395206;19;20019;-69
2022/12/10 04:12:17;;;;;;;46.05;22.83;;;;;;;-1.45;99.82;100338.03;7394933;19;20022;-69
2022/12/10 04:17:26;;;;;;;44.33;23.38;;;;;;;-1.44;99.36;100339.78;7395427;19;20369;-68
2022/12/10 04:19:57;;;;;;;45.40;22.73;;;;;;;-1.46;98.93;100332.84;7396045;19;20033;-69
2022/12/10 04:27:48;;;;;;;43.08;22.75;;;;;;;-1.51;99.26;100338.75;7395084;19;20021;-69
2022/12/10 04:30:17;;;;;;;46.60;23.17;;;;;;;-1.52;99.01;100342.16;7394072;19;20081;-69
2022/12/10 04:32:45;;;;;;;44.38;22.48;;;;;;;-1.53;99.00;100343.00;7395635;19;20371;-69
2022/12/10 04:35:17;;;;;;;48.85;22.67;;;;;;;-1.56;98.52;100348.06;7395356;19;20480;-69
2022/12/10 04:37:45;;;;;;;45.22;23.75;;;;;;;-1.58;97.98;100349.78;7396337;19;20021;-69
2022/12/10 04:40:14;;;;;;;45.25;23.60;;;;;;;-1.63;97.36;100348.81;7394042;19;20018;-69
2022/12/10 04:42:43;;;;;;;47.90;23.27;;;;;;;-1.65;97.79;100342.75;7395543;19;20019;-69
2022/12/10 04:45:12;;;;;;;46.35;23.35;;;;;;;-1.69;97.29;100349.53;7395404;19;20035;-69
2022/12/10 04:47:40;;;;;;;46.60;24.23;;;;;;;-1.70;97.20;100354.66;7393203;19;20035;-69
2022/12/10 04:50:10;;;;;;;55.65;26.80;;;;;;;-1.74;97.52;100351.13;7394799;19;20019;-69
2022/12/10 04:52:41;;;;;;;49.50;23.73;;;;;;;-1.74;97.80;100348.56;7395552;19;20027;-69
2022/12/10 04:55:10;;;;;;;43.50;23.35;;;;;;;-1.74;98.95;100346.00;7395766;19;20010;-69
2022/12/10 04:57:39;;;;;;;48.67;24.27;;;;;;;-1.73;98.28;100354.56;7394621;19;20035;-68
2022/12/10 05:00:09;;;;;;;51.85;24.88;;;;;;;-1.73;98.61;100351.97;7395220;19;20027;-69
2022/12/10 05:02:38;;;;;;;45.60;22.98;;;;;;;-1.73;98.25;100355.44;7395157;19;20018;-69
2022/12/10 05:05:07;;;;;;;49.40;24.30;;;;;;;-1.73;98.49;100354.56;7395050;19;20018;-69
2022/12/10 05:07:35;;;;;;;45.30;23.00;;;;;;;-1.73;98.86;100354.56;7393005;19;20018;-69
2022/12/10 05:10:08;;;;;;;51.08;24.85;;;;;;;-1.71;99.48;100361.47;7394950;19;20018;-68
2022/12/10 05:12:36;;;;;;;50.80;24.65;;;;;;;-1.71;98.27;100358.03;7395343;19;20041;-68
2022/12/10 05:15:05;;;;;;;54.40;24.80;;;;;;;-1.71;97.97;100356.31;7394821;19;20019;-69
2022/12/10 05:17:35;;;;;;;53.05;23.65;;;;;;;-1.72;98.27;100361.44;7392977;19;20033;-68
2022/12/10 05:20:03;;;;;;;54.95;26.33;;;;;;;-1.74;97.85;100353.69;7394605;19;20021;-69
2022/12/10 05:25:16;;;;;;;52.67;24.80;;;;;;;-1.77;97.55;100358.75;7395151;19;20021;-69
2022/12/10 05:27:44;;;;;;;55.53;27.33;;;;;;;-1.78;97.90;100362.19;7392735;19;20418;-69
2022/12/10 05:30:14;;;;;;;57.28;26.88;;;;;;;-1.80;98.07;100357.00;7394180;19;20081;-68
2022/12/10 05:32:42;;;;;;;52.28;27.10;;;;;;;-1.79;98.22;100360.44;7394212;19;20473;-68
2022/12/10 05:35:11;;;;;;;56.67;27.77;;;;;;;-1.78;98.26;100369.03;7393647;19;20490;-68
2022/12/10 05:37:39;;;;;;;56.58;27.05;;;;;;;-1.79;98.17;100365.59;7394135;19;20032;-68
2022/12/10 05:40:10;;;;;;;55.30;26.90;;;;;;;-1.80;98.29;100362.13;7394095;19;20019;-69
2022/12/10 05:42:41;;;;;;;48.67;24.90;;;;;;;-1.79;99.11;100370.75;7391485;19;20517;-68
2022/12/10 05:45:10;;;;;;;55.28;24.98;;;;;;;-1.78;99.19;100367.34;7391672;19;20359;-69
2022/12/10 05:47:39;;;;;;;58.67;24.90;;;;;;;-1.80;99.12;100364.72;7391304;19;20371;-69
2022/12/10 05:50:08;;;;;;;56.95;27.35;;;;;;;-1.78;98.43;100369.91;7393843;19;20022;-69
2022/12/10 05:52:37;;;;;;;57.30;27.95;;;;;;;-1.79;98.32;100370.75;7393890;19;20023;-69
2022/12/10 05:55:06;;;;;;;56.50;28.10;;;;;;;-1.80;98.71;100363.84;7393779;19;20022;-69
2022/12/10 05:57:34;;;;;;;50.58;25.95;;;;;;;-1.80;98.86;100363.84;7391118;19;20383;-69
2022/12/10 06:00:07;;;;;;;55.33;27.58;;;;;;;-1.79;99.02;100368.16;7393187;19;20018;-68
2022/12/10 06:02:35;;;;;;;57.33;26.70;;;;;;;-1.77;99.42;100365.63;7396084;19;20489;-69
2022/12/10 06:05:04;;;;;;;49.75;25.08;;;;;;;-1.76;98.40;100364.78;7400747;19;20039;-69
2022/12/10 06:07:33;;;;;;;56.10;27.80;;;;;;;-1.76;98.82;100359.66;7398051;19;20034;-69
2022/12/10 06:10:01;;;;;;;51.63;26.70;;;;;;;-1.82;98.93;100350.06;7400241;19;20372;-68
2022/12/10 06:12:29;;;;;;;51.40;26.75;;;;;;;-1.77;98.68;100361.34;7399956;19;20019;-68
2022/12/10 06:14:58;;;;;;;52.08;26.88;;;;;;;-1.76;99.07;100367.38;7397757;19;20031;-68
2022/12/10 06:17:29;;;;;;;55.60;27.17;;;;;;;-1.82;98.87;100357.78;7398116;19;20022;-69
2022/12/10 06:19:57;;;;;;;53.67;27.92;;;;;;;-1.78;97.85;100366.44;7399927;19;20023;-69
2022/12/10 06:22:26;;;;;;;55.95;28.85;;;;;;;-1.79;98.16;100368.16;7400154;19;20023;-68
2022/12/10 06:24:54;;;;;;;50.15;25.98;;;;;;;-1.81;98.39;100373.28;7400077;19;20023;-69
2022/12/10 06:27:23;;;;;;;53.08;26.05;;;;;;;-1.81;98.91;100373.28;7397612;19;20018;-71
2022/12/10 06:29:51;;;;;;;55.40;27.80;;;;;;;-1.80;98.72;100366.41;7399544;19;20028;-69
2022/12/10 06:32:20;;;;;;;53.00;27.70;;;;;;;-1.80;98.62;100377.56;7397393;19;20015;-69
2022/12/10 06:35:04;;;;;;;55.83;28.05;;;;;;;-1.82;98.60;100368.97;7400333;19;20039;-70
2022/12/10 06:37:33;;;;;;;56.28;27.90;;;;;;;-1.83;98.38;100374.94;7397030;19;20023;-72
2022/12/10 06:40:01;;;;;;;58.38;27.70;;;;;;;-1.81;98.57;100374.97;7399520;19;20019;-71
2022/12/10 06:42:30;;;;;;;58.90;29.10;;;;;;;-1.81;98.47;100382.69;7399403;19;20010;-69
2022/12/10 06:44:58;;;;;;;59.83;29.88;;;;;;;-1.83;98.11;100372.38;7399344;19;20048;-70
2022/12/10 06:47:27;;;;;;;59.78;27.92;;;;;;;-1.85;97.46;100383.44;7396881;19;20363;-71
2022/12/10 06:49:58;;;;;;;54.65;27.27;;;;;;;-1.87;97.26;100383.44;7399232;19;20035;-71
2022/12/10 06:52:26;;;;;;;55.63;27.30;;;;;;;-1.89;97.02;100379.94;7399709;19;20040;-71
2022/12/10 06:54:56;;;;;;;65.20;31.45;;;;;;;-1.90;97.47;100390.19;7399181;19;20014;-69
2022/12/10 06:57:24;;;;;;;55.40;29.65;;;;;;;-1.92;97.70;100382.44;7396704;19;20350;-69
2022/12/10 06:59:53;;;;;;;55.60;27.20;;;;;;;-1.93;97.86;100383.28;7398373;19;20019;-70
2022/12/10 07:02:21;;;;;;;52.85;26.83;;;;;;;-1.93;98.16;100384.97;7396923;19;20015;-70
2022/12/10 07:04:50;;;;;;;52.67;26.30;;;;;;;-1.91;98.27;100391.03;7398925;19;20151;-70
2022/12/10 07:07:21;;;;;;;53.08;25.83;;;;;;;-1.92;98.05;100394.41;7396272;19;20018;-70
2022/12/10 07:09:49;;;;;;;50.90;26.90;;;;;;;-1.93;97.42;100396.13;7398721;19;20032;-70
2022/12/10 07:12:18;;;;;;;55.20;27.80;;;;;;;-1.94;97.77;100399.53;7397101;19;20476;-70
2022/12/10 07:14:47;;;;;;;55.88;27.70;;;;;;;-1.94;97.13;100396.97;7396470;19;20363;-71
2022/12/10 07:17:15;;;;;;;53.55;26.70;;;;;;;-1.98;97.92;100396.03;7396525;19;20010;-71
2022/12/10 07:19:44;;;;;;;52.83;28.00;;;;;;;-1.97;97.65;100402.06;7397840;19;20459;-71
2022/12/10 07:22:12;;;;;;;49.70;26.98;;;;;;;-1.96;97.62;100401.19;7398188;19;20014;-70
2022/12/10 07:24:43;;;;;;;53.25;26.95;;;;;;;-1.97;97.70;100405.47;7397630;19;20010;-71
2022/12/10 07:27:12;;;;;;;49.65;26.10;;;;;;;-1.96;98.11;100408.91;7396411;19;20022;-71
2022/12/10 07:29:40;;;;;;;49.20;25.73;;;;;;;-1.94;97.75;100407.25;7395874;19;20481;-72
2022/12/10 07:32:09;;;;;;;51.22;26.63;;;;;;;-1.93;98.33;100410.69;7397662;19;20014;-71
2022/12/10 07:34:37;;;;;;;46.95;24.33;;;;;;;-1.92;98.49;100415.88;7397581;19;20481;-70
2022/12/10 07:37:06;;;;;;;47.58;25.42;;;;;;;-1.89;98.90;100421.09;7395787;19;20489;-71
2022/12/10 07:39:35;;;;;;;48.22;24.73;;;;;;;-1.87;98.89;100421.09;7395960;19;20022;-69
2022/12/10 07:42:06;;;;;;;47.55;24.70;;;;;;;-1.86;98.59;100420.28;7397713;19;20018;-71
2022/12/10 07:44:35;;;;;;;45.38;23.90;;;;;;;-1.85;98.71;100420.31;7397944;19;20019;-71
2022/12/10 07:47:03;;;;;;;41.35;22.83;;;;;;;-1.84;98.38;100419.47;7395549;19;20065;-70
2022/12/10 07:49:32;;;;;;;44.25;24.33;;;;;;;-1.84;97.75;100421.19;7396975;19;20022;-71
2022/12/10 07:52:00;;;;;;;44.90;23.90;;;;;;;-1.83;98.40;100423.81;7396894;19;20368;-72
2022/12/10 07:54:29;;;;;;;44.17;24.10;;;;;;;-1.83;98.08;100428.09;7396690;19;20014;-70
2022/12/10 07:56:57;;;;;;;44.10;22.67;;;;;;;-1.84;97.90;100429.78;7395183;19;20015;-69
2022/12/10 07:59:29;;;;;;;45.35;23.75;;;;;;;-1.82;98.15;100432.38;7396682;19;20036;-69
2022/12/10 08:01:57;;;;;;;41.75;23.48;;;;;;;-1.84;97.86;100429.78;7397096;19;20024;-68
2022/12/10 08:04:26;;;;;;;64.53;32.78;;;;;;;-1.84;97.60;100440.06;7396290;19;20018;-69
2022/12/10 08:06:57;;;;;;;50.22;26.23;;;;;;;-1.84;97.31;100434.06;7395191;19;20027;-69
2022/12/10 08:09:25;;;;;;;43.70;24.00;;;;;;;-1.84;98.19;100437.50;7395331;19;20022;-69
2022/12/10 08:11:55;;;;;;;41.00;21.52;;;;;;;-1.85;97.92;100442.59;7394935;19;20351;-70
2022/12/10 08:14:24;;;;;;;42.78;22.65;;;;;;;-1.83;98.04;100448.66;7396426;19;20026;-68
2022/12/10 08:16:55;;;;;;;43.22;24.23;;;;;;;-1.84;97.18;100445.19;7394657;19;20481;-69
2022/12/10 08:19:23;;;;;;;38.13;21.88;;;;;;;-1.82;97.97;100447.81;7396459;19;20022;-69
2022/12/10 08:21:52;;;;;;;42.72;23.13;;;;;;;-1.81;97.56;100447.88;7395716;19;20014;-69
2022/12/10 08:24:20;;;;;;;40.75;22.63;;;;;;;-1.78;98.13;100449.63;7394808;19;20028;-69
2022/12/10 08:26:49;;;;;;;41.92;22.27;;;;;;;-1.75;97.81;100451.41;7394661;19;20018;-69
2022/12/10 08:29:17;;;;;;;40.97;21.73;;;;;;;-1.75;98.17;100446.28;7394353;19;20040;-69
2022/12/10 08:31:45;;;;;;;41.17;22.77;;;;;;;-1.74;96.98;100448.00;7396293;19;20018;-69
2022/12/10 08:34:19;;;;;;;42.15;22.23;;;;;;;-1.75;96.96;100460.00;7395273;19;20035;-69
2022/12/10 08:36:48;;;;;;;43.03;22.98;;;;;;;-1.77;97.06;100451.34;7394192;19;20022;-69
2022/12/10 08:39:17;;;;;;;38.80;21.63;;;;;;;-1.75;96.81;100454.84;7393948;19;20035;-69
2022/12/10 08:41:46;;;;;;;42.72;21.15;;;;;;;-1.74;96.79;100453.16;7395600;19;20018;-69
2022/12/10 08:44:16;;;;;;;42.33;22.85;;;;;;;-1.75;96.45;100457.41;7395402;19;20078;-69
2022/12/10 08:46:44;;;;;;;43.25;22.77;;;;;;;-1.73;97.01;100466.06;7393275;19;20501;-69
2022/12/10 08:49:13;;;;;;;38.63;22.73;;;;;;;-1.71;95.41;100466.06;7393271;19;20019;-69
2022/12/10 08:51:44;;;;;;;41.40;22.08;;;;;;;-1.72;96.10;100462.66;7394773;19;20027;-69
2022/12/10 08:54:12;;;;;;;38.00;21.08;;;;;;;-1.72;95.93;100464.34;7394808;19;20022;-69
2022/12/10 08:56:42;;;;;;;41.05;22.70;;;;;;;-1.68;96.62;100466.13;7394079;19;20015;-69
2022/12/10 08:59:10;;;;;;;38.60;22.17;;;;;;;-1.69;96.91;100464.44;7394227;19;20014;-69
2022/12/10 09:01:39;;;;;;;39.75;23.00;;;;;;;-1.65;96.20;100463.66;7393173;19;20015;-70
2022/12/10 09:04:09;;;;;;;38.30;22.02;;;;;;;-1.64;96.99;100466.25;7393400;19;20041;-69
2022/12/10 09:06:38;;;;;;;43.30;22.15;;;;;;;-1.62;96.27;100471.44;7393660;19;20040;-69
2022/12/10 09:09:09;;;;;;;37.92;20.83;;;;;;;-1.60;96.15;100477.50;7393346;19;20031;-69
2022/12/10 09:11:38;;;;;;;40.17;21.17;;;;;;;-1.57;96.63;100474.97;7394913;19;20094;-69
2022/12/10 09:14:06;;;;;;;43.05;23.27;;;;;;;-1.55;96.99;100465.59;7394362;19;20541;-69
2022/12/10 09:16:38;;;;;;;43.38;23.33;;;;;;;-1.53;96.23;100466.53;7392203;19;20416;-69
2022/12/10 09:19:08;;;;;;;38.20;23.23;;;;;;;-1.54;95.88;100462.19;7393857;19;20015;-69
2022/12/10 09:21:36;;;;;;;41.15;23.25;;;;;;;-1.53;96.72;100471.66;7394130;19;20015;-69
2022/12/10 09:24:05;;;;;;;38.25;21.98;;;;;;;-1.51;96.68;100472.56;7392658;19;20022;-69
2022/12/10 09:26:36;;;;;;;39.60;22.73;;;;;;;-1.49;96.52;100472.63;7392406;19;20018;-70
2022/12/10 09:29:05;;;;;;;36.72;21.85;;;;;;;-1.46;96.80;100470.09;7393302;19;20031;-69
2022/12/10 09:31:33;;;;;;;40.80;23.33;;;;;;;-1.44;97.05;100468.44;7391937;19;20030;-69
2022/12/10 09:34:02;;;;;;;43.97;23.73;;;;;;;-1.40;97.19;100469.34;7392102;19;20033;-69
2022/12/10 09:36:30;;;;;;;48.78;24.33;;;;;;;-1.39;96.83;100469.41;7392826;19;20390;-67
2022/12/10 09:38:59;;;;;;;41.83;23.83;;;;;;;-1.35;97.31;100470.34;7400218;19;20011;-70
2022/12/10 09:41:50;;;;;;;41.65;23.13;;;;;;;-1.32;96.73;100481.56;7400640;19;20022;-69
2022/12/10 09:44:28;;;;;;;41.80;23.10;;;;;;;-1.30;95.27;100471.31;7400793;19;20015;-69
2022/12/10 09:46:59;;;;;;;40.67;21.83;;;;;;;-1.28;95.77;100473.91;7397828;19;20011;-70
2022/12/10 09:49:36;;;;;;;42.35;23.23;;;;;;;-1.27;95.65;100467.94;7399362;19;20368;-69
2022/12/10 09:52:08;;;;;;;38.45;22.20;;;;;;;-1.26;94.39;100465.41;7398778;19;20028;-69
2022/12/10 09:54:43;;;;;;;40.38;21.63;;;;;;;-1.26;94.94;100469.66;7400564;19;20494;-70
2022/12/10 09:57:41;;;;;;;42.10;22.95;;;;;;;-1.27;95.47;100463.66;7397558;19;20021;-69
2022/12/10 10:00:21;;;;;;;35.72;21.30;;;;;;;-1.24;95.76;100457.69;7400985;19;20039;-69
2022/12/10 10:02:51;;;;;;;42.17;23.67;;;;;;;-1.20;96.11;100455.22;7400348;19;20035;-69
2022/12/10 10:05:24;;;;;;;40.00;23.27;;;;;;;-1.16;95.58;100448.44;7399844;19;20379;-68
2022/12/10 10:07:56;;;;;;;42.28;24.05;;;;;;;-1.12;95.42;100451.97;7397397;19;20021;-68
2022/12/10 10:10:29;;;;;;;36.95;21.30;;;;;;;-1.11;95.58;100454.56;7398209;19;20022;-68
2022/12/10 10:13:13;;;;;;;37.92;22.05;;;;;;;-1.11;93.61;100456.25;7399999;19;20427;-68
2022/12/10 10:15:44;;;;;;;40.63;22.85;;;;;;;-1.09;94.74;100452.00;7399685;19;20037;-69
2022/12/10 10:18:18;;;;;;;34.10;20.30;;;;;;;-1.07;95.32;100455.50;7396927;19;20018;-69
2022/12/10 10:20:47;;;;;;;39.33;22.35;;;;;;;-1.01;96.01;100455.59;7397635;19;20023;-69
2022/12/10 10:23:17;;;;;;;38.15;21.83;;;;;;;-0.97;95.44;100452.28;7399679;19;20023;-69
2022/12/10 10:25:47;;;;;;;38.58;22.33;;;;;;;-0.92;96.23;100450.66;7398840;19;20014;-69
2022/12/10 10:28:21;;;;;;;37.50;22.30;;;;;;;-0.86;95.39;100448.22;7398802;19;20014;-69
2022/12/10 10:30:51;;;;;;;36.03;21.25;;;;;;;-0.81;94.47;100453.44;7399921;19;20018;-69
2022/12/10 10:33:19;;;;;;;37.22;21.70;;;;;;;-0.77;94.75;100447.53;7396746;19;20032;-69
2022/12/10 10:35:51;;;;;;;41.72;22.73;;;;;;;-0.71;94.48;100444.19;7398432;19;20082;-69
2022/12/10 10:38:23;;;;;;;37.10;21.90;;;;;;;-0.66;95.24;100443.47;7399223;19;20423;-69
2022/12/10 10:40:54;;;;;;;36.42;21.70;;;;;;;-0.59;93.28;100448.72;7397077;19;20027;-69
2022/12/10 10:43:28;;;;;;;37.15;22.77;;;;;;;-0.54;93.45;100441.94;7399477;19;20029;-69
2022/12/10 10:46:12;;;;;;;35.65;21.35;;;;;;;-0.51;94.46;100437.69;7396634;19;20018;-69
2022/12/10 10:48:41;;;;;;;35.13;20.58;;;;;;;-0.45;94.12;100436.97;7397594;19;20112;-69
2022/12/10 10:51:24;;;;;;;35.13;20.73;;;;;;;-0.40;94.28;100439.63;7396029;19;20031;-69
2022/12/10 10:53:54;;;;;;;35.20;21.43;;;;;;;-0.36;93.30;100442.28;7398857;19;20024;-70
2022/12/10 10:56:25;;;;;;;34.30;20.40;;;;;;;-0.34;93.73;100430.28;7397250;19;20028;-69
2022/12/10 10:59:01;;;;;;;31.40;19.98;;;;;;;-0.26;92.95;100437.28;7397842;19;20521;-69
2022/12/10 11:01:46;;;;;;;28.83;19.00;;;;;;;-0.23;91.74;100439.91;7397002;19;20028;-69
2022/12/10 11:04:16;;;;;;;33.42;20.27;;;;;;;-0.20;92.94;100432.25;7398935;19;20035;-69
2022/12/10 11:06:47;;;;;;;33.33;21.30;;;;;;;-0.20;92.34;100435.69;7396974;19;20094;-69
2022/12/10 11:09:23;;;;;;;31.83;20.23;;;;;;;-0.20;92.70;100427.09;7397650;19;20027;-69
2022/12/10 11:11:53;;;;;;;30.83;19.10;;;;;;;-0.12;92.70;100416.91;7399050;19;20015;-69
2022/12/10 11:14:32;;;;;;;31.30;18.77;;;;;;;-0.08;92.94;100423.84;7398445;19;20039;-69
2022/12/10 11:17:05;;;;;;;28.20;17.88;;;;;;;-0.04;92.81;100413.63;7396616;19;20109;-69
2022/12/10 11:19:34;;;;;;;27.67;18.83;;;;;;;0.03;93.58;100416.28;7396350;19;20023;-69
2022/12/10 11:22:19;;;;;;;28.27;19.17;;;;;;;0.06;91.95;100417.19;7396070;19;20010;-69
2022/12/10 11:24:49;;;;;;;30.90;19.35;;;;;;;0.08;91.79;100407.75;7397572;19;20081;-70
2022/12/10 11:27:29;;;;;;;26.00;16.98;;;;;;;0.11;92.73;100415.53;7396128;19;20019;-69
2022/12/10 11:30:06;;;;;;;24.55;16.90;;;;;;;0.12;91.46;100419.00;7395421;19;20481;-69
2022/12/10 11:32:55;;;;;;;26.35;16.92;;;;;;;0.12;91.12;100413.84;7395040;19;20502;-69
2022/12/10 11:35:32;;;;;;;28.67;18.67;;;;;;;0.12;92.09;100414.69;7397061;19;20358;-70